Terminal Aerodrome Forecast
Issued by NWS Mt. Holly, NJ

Home | Current Version | Previous Version | Text Only | Print | Product List | Glossary On
Versions: 1 2 3 4 5 6 7 8 9 10 11 12 13 14 15 16 17 18 19 20 21 22 23 24 25 26 27 28
000
FTUS41 KPHI 010800 AAA
TAFPHL
TAF AMD
KPHL 010804Z 0108/0212 21005KT P6SM VCSH FEW005 BKN050
      TEMPO 0110/0112 6SM BR SCT005 BKN015
     FM011400 24008KT P6SM SCT025 BKN060
     FM011800 23010KT 5SM -SHRA BKN040
     FM020000 24008KT P6SM SCT040 BKN100
     FM020300 24005KT P6SM FEW050 SCT100=

USA.gov is the U.S. government's official web portal to all federal, state and local government web resources and services.